Weather observations for the past three days for
Eagle Lake
Imperial (Metric)
Date Time (cdt) Wind (mph) Vis. (mi.) Weather Sky Cond. Temperature (ºF) Relative Humidity Wind Chill (°F) Heat Index (°F) Pressure Precipitation (in)
Air Dwpt 6 hour altimeter (in) sea level (mb) 1 hr 3 hr 6 hr
Max. Min.
02 11:15 SW 13 G 17 10.00 Fair CLR 89.6 75.4 63% 100 29.99 0.0
02 10:55 SW 9 G 17 10.00 Partly Cloudy SCT023 SCT075 88.5 75.7 66% 99 29.99 0.0
02 10:35 SW 8 G 16 10.00 Overcast SCT023 OVC075 87.1 76.1 70% 98 29.99 0.0
02 10:10 SW 10 10.00 Overcast SCT019 OVC075 85.5 76.5 75% 96 29.99 0.0
02 09:55 SW 10 10.00 Mostly Cloudy SCT019 BKN075 84.2 76.6 78% 94 29.99 0.0
02 09:35 SW 9 10.00 Partly Cloudy SCT014 83.3 77.7 83% 93 29.99 0.0
02 09:15 W 7 10.00 Fair CLR 82.4 77.9 86% 92 29.99 0.0
02 08:55 W 6 10.00 Partly Cloudy SCT015 SCT022 81 77.9 90% 88 29.99 0.0
02 08:30 W 3 10.00 Mostly Cloudy BKN015 79.7 77.4 93% 85 29.99 0.0
02 08:15 W 5 10.00 Fair CLR 79.3 77.4 94% 84 29.98 0.0
02 07:30 SW 7 10.00 Partly Cloudy SCT017 78.8 77.2 95% 83 29.95 0.0
02 07:20 SW 6 10.00 Partly Cloudy SCT017 78.8 77.2 95% 83 29.95 0.0
02 06:55 SW 6 10.00 Partly Cloudy SCT110 78.8 77.2 80.2 78.4 95% 83 29.96 0.0
02 06:35 SW 6 10.00 Overcast OVC100 78.8 77.4 95% 83 29.95 0.0
02 06:10 SW 7 10.00 Mostly Cloudy BKN110 78.8 77.4 95% 83 29.95 0.0
02 05:55 SW 6 10.00 Mostly Cloudy SCT070 BKN110 78.8 77.5 96% 83 29.95 0.0
02 05:40 SW 6 10.00 Partly Cloudy SCT070 78.8 77.5 96% 83 29.95 0.0
02 05:15 SW 7 10.00 Fair CLR 79 77.5 95% 83 29.95 0.0
02 04:55 SW 5 10.00 Fair CLR 79.3 77.9 95% 84 29.94 0.0
02 04:35 SW 8 10.00 Fair CLR 79.2 77.7 95% 84 29.94 0.0
02 04:15 SW 6 10.00 Partly Cloudy SCT015 SCT020 79.3 77.5 94% 84 29.94 0.0
02 03:55 SW 7 10.00 Mostly Cloudy BKN015 BKN020 79.2 77.5 95% 84 29.94 0.0
02 03:35 SW 6 10.00 Overcast OVC015 79.2 77.4 94% 84 29.95 0.0
02 03:15 SW 6 10.00 Mostly Cloudy BKN015 79 77 94% 83 29.94 0.0
02 02:55 SW 5 10.00 Partly Cloudy SCT015 78.6 76.6 94% 82 29.95 0.0
02 02:35 SW 3 10.00 Partly Cloudy SCT015 79 76.3 91% 83 29.95 0.0
02 02:15 W 3 10.00 Fair CLR 79 76.1 91% 83 29.96 0.0
02 01:55 SW 3 10.00 Fair CLR 79.3 76.1 90% 84 29.96 0.0
02 01:35 SW 7 10.00 Fair CLR 79.9 76.3 89% 85 29.96 0.0
02 01:15 SW 6 10.00 Fair CLR 80.1 76.5 89% 86 29.95 0.0
02 00:55 SW 5 10.00 Fair CLR 80.1 76.5 90 78.6 89% 86 29.95 0.0
02 00:35 S 5 10.00 Fair CLR 80.1 76.5 89% 86 29.95 0.0
02 00:15 S 5 10.00 Thunderstorm in Vicinity CLR 79.9 76.6 90% 85 29.95 0.0
01 23:35 Calm 10.00 Fair CLR 79 76.8 93% 83 29.96 0.0
01 23:15 Calm 10.00 Fair CLR 79.7 77 92% 85 29.96 0.0
01 22:55 Calm 10.00 Fair CLR 79.2 77.2 94% 84 29.95 0.0
01 22:35 Calm 10.00 Fair CLR 80.1 77 90% 86 29.95 0.0
01 22:15 Calm 10.00 Fair CLR 80.2 77.4 91% 86 29.95 0.0
01 21:55 Calm 10.00 Fair CLR 81 77 88% 88 29.94 0.0
01 21:35 Calm 10.00 Fair CLR 83.3 76.1 79% 92 29.94 0.0
01 21:15 S 5 10.00 Fair CLR 83.7 76.1 78% 92 29.93 0.0
01 20:50 S 5 10.00 Fair CLR 83.7 76.3 79% 93 29.92 0.0
01 20:15 SE 5 10.00 Fair CLR 85.1 75.4 73% 94 29.91 0.0
01 19:55 SE 6 10.00 Fair CLR 86.4 73 65% 94 29.91 0.0
01 19:35 E 3 10.00 Fair CLR 87.8 72.1 60% 95 29.91 0.0
01 19:15 E 5 10.00 Fair CLR 89.2 70.5 54% 95 29.9 0.0
01 19:00 E 5 10.00 Fair CLR 89.8 71.1 54% 96 29.9 0.0
01 18:35 E 8 10.00 Fair CLR 92.8 70.9 49% 100 29.91 0.0
01 18:15 E 5 10.00 Partly Cloudy SCT120 91.8 71.1 51% 99 29.91 0.0
01 17:55 E 5 10.00 Fair CLR 93.4 72.9 51% 102 29.9 0.0
01 17:35 E 3 10.00 Fair CLR 92.7 72 51% 101 29.9 0.0
01 17:15 E 3 10.00 Fair CLR 92.1 72.7 53% 101 29.91 0.0
01 16:50 E 5 10.00 Fair CLR 91.6 72.9 54% 100 29.91 0.0
01 16:35 E 7 10.00 Partly Cloudy SCT048 92.3 73.8 55% 102 29.91 0.0
01 16:15 E 7 10.00 Fair CLR 93.4 73.2 52% 103 29.91 0.0
01 15:35 SE 8 10.00 Fair CLR 92.3 73.4 54% 102 29.93 0.0
01 15:20 E 8 10.00 Fair CLR 91.9 73.4 55% 101 29.93 0.0
01 14:35 NE 5 10.00 Fair CLR 92.8 71.8 50% 101 29.94 0.0
01 14:10 E 5 10.00 Partly Cloudy SCT050 SCT060 93.4 73 52% 103 29.95 0.0
01 13:55 NE 9 10.00 Partly Cloudy SCT050 SCT060 93 73.9 54% 103 29.96 0.0
01 13:35 E 5 10.00 Fair CLR 93.2 73.6 53% 103 29.97 0.0
01 13:15 Calm 10.00 Fair CLR 92.5 72.1 52% 100 29.98 0.0
01 12:55 NE 6 10.00 Fair CLR 90.3 73.2 90.5 75.2 57% 99 29.99 0.0
01 12:35 NE 7 10.00 Partly Cloudy SCT041 90.1 73.2 58% 99 30 0.0
01 12:10 Calm 10.00 Partly Cloudy SCT043 90 71.4 55% 97 30.01 0.0
01 11:50 Calm 10.00 Fair CLR 89.8 71.6 55% 97 30.01 0.0
01 11:35 Calm 10.00 Fair CLR 89.2 71.2 55% 96 30.01 0.0
01 11:10 NE 3 10.00 Fair CLR 88 70.9 57% 94 30.01 0.0
01 10:55 NE 3 10.00 Fair CLR 88 71.6 58% 94 30.01 0.0
01 10:35 N 5 10.00 Fair CLR 87.3 72.5 62% 94 30.02 0.0
01 10:15 N 3 10.00 Fair CLR 86.5 74.3 67% 95 30.01 0.0
01 09:30 N 3 10.00 Fair CLR 82.6 77 83% 91 30.01 0.0
01 09:15 N 3 10.00 Fair CLR 80.8 76.8 88% 87 30.02 0.0
01 09:00 N 3 10.00 Fair CLR 80.2 77 90% 86 30.02 0.0
01 08:40 N 5 10.00 Fair CLR 80.2 77.2 90% 86 30.02 0.0
01 08:10 Calm 10.00 Fair CLR 77.7 76.3 95% 80 30.01 0.0
01 07:55 Calm 10.00 Partly Cloudy SCT016 76.3 75.4 97% 76 30.01 0.0
01 07:30 NW 3 7.00 Mostly Cloudy BKN016 75.2 74.7 98% 73 29.99 0.0
01 07:10 Calm 7.00 Partly Cloudy SCT016 75.2 74.7 98% 73 29.99 0.0
01 06:55 Calm 7.00 Fair CLR 75.4 75.2 78.8 75.2 99% 73 29.99 0.0
01 06:30 Calm 5.00 Fog/Mist CLR 75.2 74.7 98% 73 29.98 0.0
01 06:15 Calm 7.00 Fair CLR 75.6 75.2 99% 74 29.98 0.0
01 05:55 Calm 5.00 Fog/Mist CLR 75.6 75.4 99% 74 29.98 0.0
01 05:35 Calm 7.00 Fair CLR 75.7 75.4 99% 74 29.98 0.0
01 05:15 Calm 7.00 Fair CLR 75.6 75.2 99% 74 29.97 0.0
01 04:55 Calm 7.00 Fair CLR 75.7 75.4 99% 74 29.97 0.0
01 04:35 Calm 7.00 Fair CLR 76.1 75.6 98% 75 29.97 0.0
01 04:15 Calm 10.00 Fair CLR 76.5 76.1 99% 76 29.98 0.0
01 03:55 Calm 7.00 Fair CLR 76.5 76.1 99% 76 29.98 0.0
01 03:35 Calm 10.00 Fair CLR 77 76.6 99% 78 29.98 0.0
01 03:15 Calm 10.00 Fair CLR 77.4 77 99% 79 29.99 0.0
01 02:55 Calm 10.00 Fair CLR 77.4 76.6 98% 79 29.99 0.0
01 02:35 Calm 10.00 Fair CLR 77.5 76.6 97% 79 29.99 0.0
01 02:15 Calm 10.00 Partly Cloudy SCT120 77.4 76.5 97% 79 29.99 0.0
01 01:50 Calm 10.00 Partly Cloudy SCT120 77.9 76.3 95% 80 29.99 0.0
01 00:55 Calm 10.00 Fair CLR 78.1 74.7 89.2 78.1 89% 81 29.99 0.0
01 00:35 S 3 10.00 Fair CLR 78.8 74.8 88% 82 29.99 0.0
01 00:15 S 3 10.00 Fair CLR 79.2 75.2 88% 83 29.99 0.0
31 23:50 SW 3 10.00 Fair CLR 80.1 75.2 85% 85 29.99 0.0
31 23:30 S 3 10.00 Fair CLR 80.2 75.2 85% 85 29.98 0.0
31 23:15 S 5 10.00 Fair CLR 80.8 75.4 84% 87 29.98 0.0
31 22:55 S 5 10.00 Fair CLR 80.6 75.6 85% 86 29.98 0.0
31 22:35 S 3 10.00 Fair CLR 79.5 76.1 89% 84 29.98 0.0
31 22:15 S 5 10.00 Fair CLR 80.1 75.9 87% 85 29.97 0.0
31 21:35 S 5 10.00 Fair CLR 82 76.1 82% 89 29.96 0.0
31 21:15 S 6 10.00 Fair CLR 82.4 76.1 81% 90 29.94 0.0
31 20:50 SE 7 10.00 Fair CLR 83.3 75.7 78% 91 29.94 0.0
31 20:10 SE 9 10.00 Fair CLR 84.2 77 79% 94 29.94 0.0
31 19:50 SE 10 10.00 Partly Cloudy SCT110 85.3 76.5 75% 95 29.93 0.0
31 19:35 SE 13 10.00 Fair CLR 86.7 74.5 67% 95 29.93 0.0
31 19:15 SE 12 10.00 Fair CLR 88.9 73.2 60% 97 29.93 0.0
31 19:00 SE 9 10.00 Fair CLR 88.9 71.6 57% 95 29.93 0.0
31 18:30 SE 12 G 22 10.00 Partly Cloudy SCT060 SCT090 91.4 73.2 55% 100 29.93 0.0
31 18:15 E 9 10.00 Fair CLR 92.8 72.9 52% 102 29.93 0.0
31 17:50 E 13 G 16 10.00 Fair CLR 94.1 72.9 50% 103 29.93 0.0
31 17:30 SE 7 10.00 Fair CLR 95 69.4 43% 101 29.92 0.0
31 17:15 SE 6 10.00 Partly Cloudy SCT065 95.9 68.7 41% 101 29.92 0.0
31 16:55 SE 7 10.00 Mostly Cloudy BKN065 BKN080 96.8 69.6 41% 103 29.93 0.0
31 16:30 SE 3 10.00 Partly Cloudy SCT065 SCT080 97.9 69.8 40% 105 29.93 0.0
31 16:00 NE 3 10.00 Fair CLR 96.1 70 43% 103 29.94 0.0
31 15:10 NE 6 10.00 Fair CLR 96.1 71.4 45% 104 29.97 0.0
31 14:55 E 3 10.00 Fair CLR 96.4 70.5 43% 104 29.97 0.0
31 14:20 E 3 10.00 Partly Cloudy SCT055 96.6 70.3 43% 104 29.98 0.0
31 14:00 NE 3 10.00 Fair CLR 95 72 47% 103 29.99 0.0
31 13:40 SE 5 10.00 Fair CLR 93.6 70.9 48% 101 30 0.0
31 13:20 NE 6 10.00 Partly Cloudy SCT047 93.6 71.6 49% 101 30.01 0.0
31 12:55 Calm 10.00 Partly Cloudy SCT048 93.2 71.8 93.4 73 50% 101 30.02 0.0
31 12:35 Calm 10.00 Fair CLR 91 71.1 52% 98 30.02 0.0
31 12:15 E 6 10.00 Partly Cloudy SCT038 91.2 72.5 54% 99 30.02 0.0
31 11:55 Calm 10.00 Partly Cloudy SCT036 91.4 72.9 55% 100 30.03 0.0
31 11:35 SE 3 10.00 Partly Cloudy SCT034 90.7 74.1 58% 100 30.03 0.0
31 11:15 Calm 10.00 Fair CLR 88.3 74.1 63% 97 30.04 0.0
31 10:55 Calm 10.00 Partly Cloudy SCT021 87.8 75.2 66% 98 30.03 0.0
31 10:30 Calm 10.00 Partly Cloudy SCT020 86.5 76.3 72% 97 30.03 0.0
31 10:10 Calm 10.00 Fair CLR 85.1 77.5 78% 96 30.03 0.0
31 09:55 Calm 10.00 Fair CLR 83.5 78.3 84% 94 30.03 0.0
31 09:30 E 3 10.00 Partly Cloudy SCT004 81.3 78.4 91% 90 30.03 0.0
31 09:10 E 5 7.00 Mostly Cloudy BKN002 79.7 77.9 94% 85 30.02 0.0
31 08:55 E 5 5.00 Fog/Mist BKN002 78.4 77.4 97% 82 30.02 0.0
31 08:35 NE 3 5.00 Fog/Mist SCT002 77 76.3 98% 78 30.02 0.0
31 08:15 Calm 4.00 Fog/Mist CLR 75.6 75.2 99% 74 30.01 0.0
31 07:55 Calm 4.00 Fog/Mist CLR 74.5 74.1 99% 30 0.0
31 07:35 Calm 4.00 Fog/Mist CLR 73.4 73.2 99% 29.99 0.0
31 07:15 Calm 4.00 Fog/Mist CLR 73.4 73.2 99% 29.99 0.0
31 06:55 Calm 5.00 Fog/Mist CLR 73 72.9 76.6 73 99% 29.99 0.0
31 06:35 Calm 5.00 Fog/Mist CLR 73 72.9 99% 29.98 0.0
31 06:15 Calm 7.00 Fair CLR 73.4 73.4 100% 29.99 0.0
31 05:55 Calm 7.00 Fair CLR 73.6 73.4 99% 29.98 0.0
31 05:35 Calm 7.00 Fair CLR 74.5 74.3 99% 29.98 0.0
31 05:15 Calm 7.00 Fair CLR 74.8 74.5 99% 29.98 0.0
31 04:55 Calm 10.00 Fair CLR 76.1 75.6 98% 75 29.98 0.0
31 04:35 SW 3 10.00 Fair CLR 74.8 74.5 99% 29.98 0.0
31 04:15 Calm 10.00 Fair CLR 74.7 74.3 99% 29.98 0.0
31 03:55 Calm 10.00 Fair CLR 74.8 74.5 99% 29.98 0.0
31 03:35 Calm 10.00 Fair CLR 74.7 74.3 99% 29.99 0.0
31 03:15 Calm 10.00 Partly Cloudy SCT015 74.7 74.3 99% 29.98 0.0
31 02:55 Calm 10.00 Fair CLR 74.7 74.3 99% 29.99 0.0
31 02:35 Calm 10.00 Fair CLR 73.9 73.6 99% 29.99 0.0
31 02:15 Calm 10.00 Fair CLR 75.2 74.5 98% 73 30 0.0
31 01:55 Calm 10.00 Fair CLR 75.2 74.3 97% 73 30 0.0
31 01:35 Calm 10.00 Fair CLR 76.1 75 96% 76 30 0.0
31 01:15 Calm 10.00 Fair CLR 75.6 74.3 96% 74 30 0.0
31 00:55 Calm 10.00 Fair CLR 76.5 74.5 90.9 76.3 94% 77 30 0.0
31 00:35 Calm 10.00 Fair CLR 77 74.3 91% 78 30 0.0
31 00:15 S 3 10.00 Fair CLR 77.9 74.7 90% 80 29.99 0.0
30 23:55 S 6 10.00 Fair CLR 77.7 74.5 90% 80 29.99 0.0
30 23:35 S 5 10.00 Fair CLR 77 74.3 91% 78 29.99 0.0
30 23:15 S 5 10.00 Fair CLR 78.3 74.3 88% 81 29.99 0.0
30 22:50 S 5 10.00 Fair CLR 78.4 74.3 87% 81 29.98 0.0
30 22:35 S 6 10.00 Fair CLR 79 74.3 86% 83 29.98 0.0
30 22:15 S 5 10.00 Fair CLR 79.5 74.5 85% 84 29.98 0.0
30 21:55 S 7 10.00 Fair CLR 80.4 74.3 82% 85 29.97 0.0
30 21:35 S 9 10.00 Fair CLR 81.9 73.9 77% 88 29.96 0.0
30 21:15 SE 7 10.00 Fair CLR 83.1 73.6 73% 89 29.94 0.0
30 20:55 SE 8 10.00 Fair CLR 84 73.6 71% 91 29.94 0.0
30 20:35 S 7 10.00 Fair CLR 84.4 73.8 71% 91 29.93 0.0
30 20:15 S 9 10.00 Fair CLR 85.6 74.1 69% 94 29.93 0.0
30 19:55 S 7 10.00 Fair CLR 86.9 74.3 66% 96 29.93 0.0
30 19:35 S 8 10.00 Fair CLR 88.5 72.9 60% 96 29.92 0.0
30 19:15 SE 8 10.00 Fair CLR 90.3 72 55% 98 29.92 0.0
30 18:55 SE 8 10.00 Fair CLR 91 73 96.6 89.6 56% 100 29.92 0.0
30 18:35 SE 13 10.00 Fair CLR 93.6 72.5 50% 102 29.92 0.0
30 18:15 S 6 10.00 Fair CLR 89.8 73 58% 98 29.92 0.0
30 17:55 S 8 10.00 Fair CLR 89.6 73 58% 98 29.92 0.0
30 17:35 S 10 10.00 Fair CLR 90.5 72.5 56% 98 29.92 0.0
30 17:15 S 10 10.00 Fair CLR 91.8 72.9 54% 100 29.92 0.0
30 16:55 S 10 10.00 Partly Cloudy SCT065 92.7 72.7 52% 101 29.93 0.0
30 16:30 SE 9 10.00 Fair CLR 95.7 69.3 42% 102 29.92 0.0
30 16:15 E 5 10.00 Partly Cloudy SCT060 95.9 68.4 41% 101 29.93 0.0
30 15:55 E 5 10.00 Partly Cloudy SCT060 95.9 69.1 42% 102 29.94 0.0
30 15:15 Calm 10.00 Partly Cloudy SCT060 95.9 70.3 44% 103 29.96 0.0
30 14:55 NE 5 10.00 Partly Cloudy SCT050 95.9 71.4 45% 104 29.97 0.0
30 14:30 E 8 10.00 Partly Cloudy SCT050 SCT065 95.5 72.9 48% 105 29.98 0.0
30 14:10 NE 6 10.00 Partly Cloudy SCT047 SCT055 SCT065 95.2 72.9 49% 105 29.99 0.0
30 13:55 SW 6 10.00 Mostly Cloudy BKN047 93.6 72.3 50% 102 29.99 0.0
30 13:35 SW 5 10.00 Partly Cloudy SCT045 93.6 72.3 50% 102 30 0.0
30 13:15 E 3 10.00 Partly Cloudy SCT041 92.3 73.8 55% 102 30.01 0.0
30 12:55 S 7 10.00 Partly Cloudy SCT039 92.1 73.4 92.1 73.8 54% 101 30.02 0.0
30 12:35 SW 5 10.00 Fair CLR 90.3 73.9 59% 100 30.03 0.0
30 12:15 W 5 10.00 Fair CLR 90.3 74.5 60% 100 30.03 0.0
30 12:00 S 3 10.00 Fair CLR 89.8 74.7 61% 100 30.04 0.0
Date Time (cdt) Wind (mph) Vis. (mi.) Weather Sky Cond. Air Dwpt Max. Min. Relative Humidity Wind Chill (°F) Heat Index (°F) altimeter (in) sea level (mb) 1 hr 3 hr 6 hr
6 hour
Temperature (ºF) Pressure Precipitation (in)